sensor_id;sensor_type;location;lat;lon;timestamp;P1;durP1;ratioP1;P2;durP2;ratioP2
9160;SDS011;4615;51.340;8.288;2024-02-16T00:02:22;2.63;;;1.63;;
9160;SDS011;4615;51.340;8.288;2024-02-16T00:04:49;2.45;;;1.60;;
9160;SDS011;4615;51.340;8.288;2024-02-16T00:07:15;2.00;;;1.70;;
9160;SDS011;4615;51.340;8.288;2024-02-16T00:09:41;3.08;;;1.55;;
9160;SDS011;4615;51.340;8.288;2024-02-16T00:12:08;2.50;;;1.70;;
9160;SDS011;4615;51.340;8.288;2024-02-16T00:14:34;2.22;;;1.58;;
9160;SDS011;4615;51.340;8.288;2024-02-16T00:17:00;3.05;;;1.60;;
9160;SDS011;4615;51.340;8.288;2024-02-16T00:19:28;2.65;;;1.50;;
9160;SDS011;4615;51.340;8.288;2024-02-16T00:21:54;3.33;;;1.60;;
9160;SDS011;4615;51.340;8.288;2024-02-16T00:24:21;2.03;;;1.52;;
9160;SDS011;4615;51.340;8.288;2024-02-16T00:26:47;3.03;;;1.58;;
9160;SDS011;4615;51.340;8.288;2024-02-16T00:29:14;2.08;;;1.70;;
9160;SDS011;4615;51.340;8.288;2024-02-16T00:31:41;2.38;;;1.50;;
9160;SDS011;4615;51.340;8.288;2024-02-16T00:34:07;3.25;;;1.80;;
9160;SDS011;4615;51.340;8.288;2024-02-16T00:36:35;1.80;;;1.60;;
9160;SDS011;4615;51.340;8.288;2024-02-16T00:39:01;3.70;;;1.77;;
9160;SDS011;4615;51.340;8.288;2024-02-16T00:41:28;3.22;;;1.77;;
9160;SDS011;4615;51.340;8.288;2024-02-16T00:43:55;2.45;;;1.73;;
9160;SDS011;4615;51.340;8.288;2024-02-16T00:46:22;2.42;;;1.65;;
9160;SDS011;4615;51.340;8.288;2024-02-16T00:48:48;3.65;;;1.75;;
9160;SDS011;4615;51.340;8.288;2024-02-16T00:51:14;2.63;;;1.60;;
9160;SDS011;4615;51.340;8.288;2024-02-16T00:53:42;2.90;;;1.77;;
9160;SDS011;4615;51.340;8.288;2024-02-16T00:56:08;3.28;;;1.95;;
9160;SDS011;4615;51.340;8.288;2024-02-16T00:58:36;2.30;;;1.70;;
9160;SDS011;4615;51.340;8.288;2024-02-16T01:01:03;3.13;;;1.77;;
9160;SDS011;4615;51.340;8.288;2024-02-16T01:03:30;2.38;;;1.80;;
9160;SDS011;4615;51.340;8.288;2024-02-16T01:05:56;3.50;;;1.80;;
9160;SDS011;4615;51.340;8.288;2024-02-16T01:08:22;3.08;;;1.75;;
9160;SDS011;4615;51.340;8.288;2024-02-16T01:10:50;3.15;;;1.60;;
9160;SDS011;4615;51.340;8.288;2024-02-16T01:13:16;3.10;;;1.80;;
9160;SDS011;4615;51.340;8.288;2024-02-16T01:15:43;3.00;;;1.90;;
9160;SDS011;4615;51.340;8.288;2024-02-16T01:18:10;2.28;;;1.50;;
9160;SDS011;4615;51.340;8.288;2024-02-16T01:20:36;2.50;;;1.63;;
9160;SDS011;4615;51.340;8.288;2024-02-16T01:23:03;3.88;;;1.83;;
9160;SDS011;4615;51.340;8.288;2024-02-16T01:25:30;2.93;;;1.60;;
9160;SDS011;4615;51.340;8.288;2024-02-16T01:27:57;2.85;;;1.70;;
9160;SDS011;4615;51.340;8.288;2024-02-16T01:30:24;2.38;;;1.60;;
9160;SDS011;4615;51.340;8.288;2024-02-16T01:32:51;2.57;;;1.70;;
9160;SDS011;4615;51.340;8.288;2024-02-16T01:35:17;3.58;;;1.98;;
9160;SDS011;4615;51.340;8.288;2024-02-16T01:37:43;2.37;;;1.80;;
9160;SDS011;4615;51.340;8.288;2024-02-16T01:40:10;3.97;;;1.80;;
9160;SDS011;4615;51.340;8.288;2024-02-16T01:42:39;2.65;;;1.58;;
9160;SDS011;4615;51.340;8.288;2024-02-16T01:45:07;2.70;;;1.83;;
9160;SDS011;4615;51.340;8.288;2024-02-16T01:47:35;2.50;;;1.70;;
9160;SDS011;4615;51.340;8.288;2024-02-16T01:50:01;3.00;;;1.92;;
9160;SDS011;4615;51.340;8.288;2024-02-16T01:52:28;1.90;;;1.58;;
9160;SDS011;4615;51.340;8.288;2024-02-16T01:54:55;4.23;;;1.97;;
9160;SDS011;4615;51.340;8.288;2024-02-16T01:57:22;2.20;;;1.70;;
9160;SDS011;4615;51.340;8.288;2024-02-16T01:59:49;2.70;;;1.90;;
9160;SDS011;4615;51.340;8.288;2024-02-16T02:02:16;2.42;;;1.70;;
9160;SDS011;4615;51.340;8.288;2024-02-16T02:04:43;3.00;;;1.90;;
9160;SDS011;4615;51.340;8.288;2024-02-16T02:07:13;3.60;;;1.90;;
9160;SDS011;4615;51.340;8.288;2024-02-16T02:09:39;2.72;;;1.83;;
9160;SDS011;4615;51.340;8.288;2024-02-16T02:12:05;3.03;;;1.70;;
9160;SDS011;4615;51.340;8.288;2024-02-16T02:14:32;4.78;;;1.80;;
9160;SDS011;4615;51.340;8.288;2024-02-16T02:16:58;2.42;;;1.80;;
9160;SDS011;4615;51.340;8.288;2024-02-16T02:19:26;2.30;;;1.80;;
9160;SDS011;4615;51.340;8.288;2024-02-16T02:21:53;3.53;;;1.63;;
9160;SDS011;4615;51.340;8.288;2024-02-16T02:24:20;3.47;;;1.80;;
9160;SDS011;4615;51.340;8.288;2024-02-16T02:26:47;1.93;;;1.70;;
9160;SDS011;4615;51.340;8.288;2024-02-16T02:29:13;3.33;;;1.92;;
9160;SDS011;4615;51.340;8.288;2024-02-16T02:31:40;1.73;;;1.58;;
9160;SDS011;4615;51.340;8.288;2024-02-16T02:34:06;3.20;;;1.80;;
9160;SDS011;4615;51.340;8.288;2024-02-16T02:36:33;2.85;;;1.80;;
9160;SDS011;4615;51.340;8.288;2024-02-16T02:38:59;2.50;;;1.80;;
9160;SDS011;4615;51.340;8.288;2024-02-16T02:41:27;2.38;;;1.80;;
9160;SDS011;4615;51.340;8.288;2024-02-16T02:43:54;2.20;;;1.50;;
9160;SDS011;4615;51.340;8.288;2024-02-16T02:46:20;3.20;;;1.90;;
9160;SDS011;4615;51.340;8.288;2024-02-16T02:48:50;3.72;;;1.92;;
9160;SDS011;4615;51.340;8.288;2024-02-16T02:51:17;2.13;;;1.60;;
9160;SDS011;4615;51.340;8.288;2024-02-16T02:53:43;2.63;;;1.92;;
9160;SDS011;4615;51.340;8.288;2024-02-16T02:56:09;3.35;;;1.92;;
9160;SDS011;4615;51.340;8.288;2024-02-16T02:58:37;2.15;;;1.70;;
9160;SDS011;4615;51.340;8.288;2024-02-16T03:01:04;3.70;;;1.90;;
9160;SDS011;4615;51.340;8.288;2024-02-16T03:03:32;4.07;;;1.90;;
9160;SDS011;4615;51.340;8.288;2024-02-16T03:05:59;3.10;;;2.00;;
9160;SDS011;4615;51.340;8.288;2024-02-16T03:08:25;2.35;;;1.95;;
9160;SDS011;4615;51.340;8.288;2024-02-16T03:10:51;3.13;;;1.88;;
9160;SDS011;4615;51.340;8.288;2024-02-16T03:13:18;2.83;;;1.93;;
9160;SDS011;4615;51.340;8.288;2024-02-16T03:15:46;2.53;;;1.92;;
9160;SDS011;4615;51.340;8.288;2024-02-16T03:18:13;3.85;;;1.80;;
9160;SDS011;4615;51.340;8.288;2024-02-16T03:20:40;2.65;;;1.90;;
9160;SDS011;4615;51.340;8.288;2024-02-16T03:23:10;2.88;;;2.20;;
9160;SDS011;4615;51.340;8.288;2024-02-16T03:25:37;3.55;;;1.90;;
9160;SDS011;4615;51.340;8.288;2024-02-16T03:28:03;2.85;;;1.90;;
9160;SDS011;4615;51.340;8.288;2024-02-16T03:30:30;2.33;;;1.77;;
9160;SDS011;4615;51.340;8.288;2024-02-16T03:32:58;3.25;;;1.98;;
9160;SDS011;4615;51.340;8.288;2024-02-16T03:35:24;3.13;;;2.10;;
9160;SDS011;4615;51.340;8.288;2024-02-16T03:37:52;2.95;;;2.17;;
9160;SDS011;4615;51.340;8.288;2024-02-16T03:40:19;3.97;;;1.95;;
9160;SDS011;4615;51.340;8.288;2024-02-16T03:42:45;3.17;;;1.88;;
9160;SDS011;4615;51.340;8.288;2024-02-16T03:45:11;3.03;;;1.80;;
9160;SDS011;4615;51.340;8.288;2024-02-16T03:47:39;4.40;;;1.98;;
9160;SDS011;4615;51.340;8.288;2024-02-16T03:50:07;4.45;;;2.17;;
9160;SDS011;4615;51.340;8.288;2024-02-16T03:52:34;3.78;;;2.00;;
9160;SDS011;4615;51.340;8.288;2024-02-16T03:55:00;3.35;;;1.90;;
9160;SDS011;4615;51.340;8.288;2024-02-16T03:57:27;2.83;;;1.90;;
9160;SDS011;4615;51.340;8.288;2024-02-16T03:59:53;3.55;;;2.00;;
9160;SDS011;4615;51.340;8.288;2024-02-16T04:02:19;3.13;;;1.80;;
9160;SDS011;4615;51.340;8.288;2024-02-16T04:04:46;2.13;;;1.80;;
9160;SDS011;4615;51.340;8.288;2024-02-16T04:07:13;3.50;;;2.00;;
9160;SDS011;4615;51.340;8.288;2024-02-16T04:09:40;2.88;;;2.00;;
9160;SDS011;4615;51.340;8.288;2024-02-16T04:12:06;3.22;;;1.95;;
9160;SDS011;4615;51.340;8.288;2024-02-16T04:14:33;5.70;;;2.10;;
9160;SDS011;4615;51.340;8.288;2024-02-16T04:16:59;3.28;;;2.00;;
9160;SDS011;4615;51.340;8.288;2024-02-16T04:19:26;3.00;;;2.10;;
9160;SDS011;4615;51.340;8.288;2024-02-16T04:21:52;3.58;;;2.00;;
9160;SDS011;4615;51.340;8.288;2024-02-16T04:24:20;3.77;;;2.10;;
9160;SDS011;4615;51.340;8.288;2024-02-16T04:26:46;4.32;;;1.83;;
9160;SDS011;4615;51.340;8.288;2024-02-16T04:29:13;3.20;;;2.08;;
9160;SDS011;4615;51.340;8.288;2024-02-16T04:31:39;4.55;;;2.20;;
9160;SDS011;4615;51.340;8.288;2024-02-16T04:34:07;2.75;;;2.00;;
9160;SDS011;4615;51.340;8.288;2024-02-16T04:36:34;3.08;;;2.03;;
9160;SDS011;4615;51.340;8.288;2024-02-16T04:39:00;2.83;;;1.90;;
9160;SDS011;4615;51.340;8.288;2024-02-16T04:41:28;2.22;;;1.80;;
9160;SDS011;4615;51.340;8.288;2024-02-16T04:43:54;3.47;;;2.03;;
9160;SDS011;4615;51.340;8.288;2024-02-16T04:46:21;2.50;;;1.87;;
9160;SDS011;4615;51.340;8.288;2024-02-16T04:48:47;2.85;;;1.90;;
9160;SDS011;4615;51.340;8.288;2024-02-16T04:51:13;2.88;;;1.95;;
9160;SDS011;4615;51.340;8.288;2024-02-16T04:53:40;2.10;;;1.77;;
9160;SDS011;4615;51.340;8.288;2024-02-16T04:56:06;2.50;;;2.10;;
9160;SDS011;4615;51.340;8.288;2024-02-16T04:58:34;2.28;;;1.92;;
9160;SDS011;4615;51.340;8.288;2024-02-16T05:01:01;3.15;;;1.90;;
9160;SDS011;4615;51.340;8.288;2024-02-16T05:03:28;4.03;;;2.30;;
9160;SDS011;4615;51.340;8.288;2024-02-16T05:05:54;4.63;;;2.65;;
9160;SDS011;4615;51.340;8.288;2024-02-16T05:08:21;3.42;;;2.40;;
9160;SDS011;4615;51.340;8.288;2024-02-16T05:10:47;3.85;;;2.50;;
9160;SDS011;4615;51.340;8.288;2024-02-16T05:13:14;3.25;;;2.22;;
9160;SDS011;4615;51.340;8.288;2024-02-16T05:15:41;3.90;;;2.40;;
9160;SDS011;4615;51.340;8.288;2024-02-16T05:18:08;3.95;;;2.10;;
9160;SDS011;4615;51.340;8.288;2024-02-16T05:20:37;3.45;;;1.90;;
9160;SDS011;4615;51.340;8.288;2024-02-16T05:23:03;2.50;;;1.80;;
9160;SDS011;4615;51.340;8.288;2024-02-16T05:25:30;2.97;;;2.10;;
9160;SDS011;4615;51.340;8.288;2024-02-16T05:27:56;3.53;;;2.10;;
9160;SDS011;4615;51.340;8.288;2024-02-16T05:30:23;2.40;;;1.90;;
9160;SDS011;4615;51.340;8.288;2024-02-16T05:32:51;2.28;;;1.90;;
9160;SDS011;4615;51.340;8.288;2024-02-16T05:35:18;2.10;;;1.77;;
9160;SDS011;4615;51.340;8.288;2024-02-16T05:37:44;2.83;;;1.92;;
9160;SDS011;4615;51.340;8.288;2024-02-16T05:40:14;3.50;;;1.90;;
9160;SDS011;4615;51.340;8.288;2024-02-16T05:42:49;3.30;;;2.17;;
9160;SDS011;4615;51.340;8.288;2024-02-16T05:45:16;2.83;;;1.77;;
9160;SDS011;4615;51.340;8.288;2024-02-16T05:47:43;4.03;;;1.88;;
9160;SDS011;4615;51.340;8.288;2024-02-16T05:50:12;2.53;;;2.00;;
9160;SDS011;4615;51.340;8.288;2024-02-16T05:52:38;2.30;;;1.80;;
9160;SDS011;4615;51.340;8.288;2024-02-16T05:55:06;3.20;;;1.90;;
9160;SDS011;4615;51.340;8.288;2024-02-16T05:57:33;3.10;;;2.08;;
9160;SDS011;4615;51.340;8.288;2024-02-16T05:59:59;2.45;;;1.80;;
9160;SDS011;4615;51.340;8.288;2024-02-16T06:02:26;3.88;;;2.22;;
9160;SDS011;4615;51.340;8.288;2024-02-16T06:04:52;3.47;;;1.85;;
9160;SDS011;4615;51.340;8.288;2024-02-16T06:07:20;3.10;;;2.03;;
9160;SDS011;4615;51.340;8.288;2024-02-16T06:09:47;3.15;;;1.98;;
9160;SDS011;4615;51.340;8.288;2024-02-16T06:12:13;3.30;;;2.10;;
9160;SDS011;4615;51.340;8.288;2024-02-16T06:14:41;2.08;;;1.88;;
9160;SDS011;4615;51.340;8.288;2024-02-16T06:17:07;4.20;;;2.17;;
9160;SDS011;4615;51.340;8.288;2024-02-16T06:19:33;2.22;;;1.88;;
9160;SDS011;4615;51.340;8.288;2024-02-16T06:22:00;2.72;;;1.90;;
9160;SDS011;4615;51.340;8.288;2024-02-16T06:24:28;2.35;;;2.00;;
9160;SDS011;4615;51.340;8.288;2024-02-16T06:26:54;3.00;;;2.13;;
9160;SDS011;4615;51.340;8.288;2024-02-16T06:29:20;3.70;;;1.83;;
9160;SDS011;4615;51.340;8.288;2024-02-16T06:31:47;2.25;;;1.88;;
9160;SDS011;4615;51.340;8.288;2024-02-16T06:34:13;3.00;;;2.08;;
9160;SDS011;4615;51.340;8.288;2024-02-16T06:36:40;3.00;;;2.00;;
9160;SDS011;4615;51.340;8.288;2024-02-16T06:39:06;2.95;;;1.95;;
9160;SDS011;4615;51.340;8.288;2024-02-16T06:41:34;3.33;;;2.00;;
9160;SDS011;4615;51.340;8.288;2024-02-16T06:44:00;3.88;;;2.00;;
9160;SDS011;4615;51.340;8.288;2024-02-16T06:46:26;2.90;;;2.05;;
9160;SDS011;4615;51.340;8.288;2024-02-16T06:48:54;2.58;;;1.90;;
9160;SDS011;4615;51.340;8.288;2024-02-16T06:51:21;3.30;;;2.10;;
9160;SDS011;4615;51.340;8.288;2024-02-16T06:53:48;2.85;;;2.03;;
9160;SDS011;4615;51.340;8.288;2024-02-16T06:56:14;2.90;;;1.95;;
9160;SDS011;4615;51.340;8.288;2024-02-16T06:58:42;3.00;;;2.10;;
9160;SDS011;4615;51.340;8.288;2024-02-16T07:01:08;2.33;;;1.70;;
9160;SDS011;4615;51.340;8.288;2024-02-16T07:03:34;3.08;;;2.00;;
9160;SDS011;4615;51.340;8.288;2024-02-16T07:06:01;2.05;;;1.83;;
9160;SDS011;4615;51.340;8.288;2024-02-16T07:08:28;2.75;;;1.80;;
9160;SDS011;4615;51.340;8.288;2024-02-16T07:10:54;2.38;;;1.73;;
9160;SDS011;4615;51.340;8.288;2024-02-16T07:13:21;3.00;;;1.92;;
9160;SDS011;4615;51.340;8.288;2024-02-16T07:15:49;3.30;;;1.98;;
9160;SDS011;4615;51.340;8.288;2024-02-16T07:18:15;2.60;;;1.77;;
9160;SDS011;4615;51.340;8.288;2024-02-16T07:20:42;2.40;;;2.10;;
9160;SDS011;4615;51.340;8.288;2024-02-16T07:23:08;3.25;;;2.10;;
9160;SDS011;4615;51.340;8.288;2024-02-16T07:25:35;2.38;;;1.80;;
9160;SDS011;4615;51.340;8.288;2024-02-16T07:28:02;3.30;;;2.00;;
9160;SDS011;4615;51.340;8.288;2024-02-16T07:30:28;2.65;;;1.88;;
9160;SDS011;4615;51.340;8.288;2024-02-16T07:32:56;2.40;;;1.80;;
9160;SDS011;4615;51.340;8.288;2024-02-16T07:35:22;3.38;;;2.20;;
9160;SDS011;4615;51.340;8.288;2024-02-16T07:37:49;3.60;;;2.20;;
9160;SDS011;4615;51.340;8.288;2024-02-16T07:40:17;2.67;;;2.00;;
9160;SDS011;4615;51.340;8.288;2024-02-16T07:42:43;2.90;;;2.03;;
9160;SDS011;4615;51.340;8.288;2024-02-16T07:45:10;2.85;;;2.25;;
9160;SDS011;4615;51.340;8.288;2024-02-16T07:47:37;3.10;;;2.53;;
9160;SDS011;4615;51.340;8.288;2024-02-16T07:50:05;3.30;;;2.27;;
9160;SDS011;4615;51.340;8.288;2024-02-16T07:52:32;2.90;;;2.13;;
9160;SDS011;4615;51.340;8.288;2024-02-16T07:54:58;3.30;;;2.10;;
9160;SDS011;4615;51.340;8.288;2024-02-16T07:57:24;4.57;;;2.20;;
9160;SDS011;4615;51.340;8.288;2024-02-16T07:59:51;3.13;;;1.90;;
9160;SDS011;4615;51.340;8.288;2024-02-16T08:02:18;3.17;;;2.20;;
9160;SDS011;4615;51.340;8.288;2024-02-16T08:04:46;2.35;;;1.90;;
9160;SDS011;4615;51.340;8.288;2024-02-16T08:07:14;3.40;;;2.00;;
9160;SDS011;4615;51.340;8.288;2024-02-16T08:09:43;2.85;;;2.00;;
9160;SDS011;4615;51.340;8.288;2024-02-16T08:12:09;4.72;;;2.33;;
9160;SDS011;4615;51.340;8.288;2024-02-16T08:14:37;3.20;;;2.10;;
9160;SDS011;4615;51.340;8.288;2024-02-16T08:17:04;3.03;;;2.20;;
9160;SDS011;4615;51.340;8.288;2024-02-16T08:19:31;3.53;;;2.13;;
9160;SDS011;4615;51.340;8.288;2024-02-16T08:21:58;3.40;;;2.13;;
9160;SDS011;4615;51.340;8.288;2024-02-16T08:24:25;3.35;;;2.20;;
9160;SDS011;4615;51.340;8.288;2024-02-16T08:26:52;3.63;;;2.20;;
9160;SDS011;4615;51.340;8.288;2024-02-16T08:29:18;3.03;;;2.53;;
9160;SDS011;4615;51.340;8.288;2024-02-16T08:31:45;3.40;;;2.35;;
9160;SDS011;4615;51.340;8.288;2024-02-16T08:34:13;3.37;;;2.40;;
9160;SDS011;4615;51.340;8.288;2024-02-16T08:36:43;2.25;;;2.05;;
9160;SDS011;4615;51.340;8.288;2024-02-16T08:39:09;3.83;;;2.40;;
9160;SDS011;4615;51.340;8.288;2024-02-16T08:41:38;4.78;;;2.58;;
9160;SDS011;4615;51.340;8.288;2024-02-16T08:44:04;3.72;;;2.40;;
9160;SDS011;4615;51.340;8.288;2024-02-16T08:46:30;2.88;;;2.30;;
9160;SDS011;4615;51.340;8.288;2024-02-16T08:48:57;3.53;;;2.17;;
9160;SDS011;4615;51.340;8.288;2024-02-16T08:51:23;4.30;;;2.40;;
9160;SDS011;4615;51.340;8.288;2024-02-16T08:53:50;3.22;;;2.30;;
9160;SDS011;4615;51.340;8.288;2024-02-16T08:56:16;3.33;;;2.20;;
9160;SDS011;4615;51.340;8.288;2024-02-16T08:58:44;3.97;;;2.28;;
9160;SDS011;4615;51.340;8.288;2024-02-16T09:01:10;2.90;;;2.20;;
9160;SDS011;4615;51.340;8.288;2024-02-16T09:03:36;3.08;;;2.10;;
9160;SDS011;4615;51.340;8.288;2024-02-16T09:06:05;4.35;;;2.10;;
9160;SDS011;4615;51.340;8.288;2024-02-16T09:08:31;2.78;;;2.10;;
9160;SDS011;4615;51.340;8.288;2024-02-16T09:11:00;4.03;;;2.35;;
9160;SDS011;4615;51.340;8.288;2024-02-16T09:13:30;2.73;;;2.20;;
9160;SDS011;4615;51.340;8.288;2024-02-16T09:15:57;3.13;;;2.08;;
9160;SDS011;4615;51.340;8.288;2024-02-16T09:18:24;3.40;;;2.30;;
9160;SDS011;4615;51.340;8.288;2024-02-16T09:20:50;3.45;;;2.28;;
9160;SDS011;4615;51.340;8.288;2024-02-16T09:23:17;2.55;;;2.30;;
9160;SDS011;4615;51.340;8.288;2024-02-16T09:25:43;3.35;;;2.30;;
9160;SDS011;4615;51.340;8.288;2024-02-16T09:28:11;4.07;;;2.30;;
9160;SDS011;4615;51.340;8.288;2024-02-16T09:30:37;4.70;;;2.38;;
9160;SDS011;4615;51.340;8.288;2024-02-16T09:33:05;4.45;;;2.20;;
9160;SDS011;4615;51.340;8.288;2024-02-16T09:35:32;3.45;;;2.10;;
9160;SDS011;4615;51.340;8.288;2024-02-16T09:37:58;3.05;;;2.38;;
9160;SDS011;4615;51.340;8.288;2024-02-16T09:40:25;5.77;;;2.50;;
9160;SDS011;4615;51.340;8.288;2024-02-16T09:42:51;4.68;;;2.47;;
9160;SDS011;4615;51.340;8.288;2024-02-16T09:45:17;3.55;;;2.30;;
9160;SDS011;4615;51.340;8.288;2024-02-16T09:47:44;3.70;;;2.33;;
9160;SDS011;4615;51.340;8.288;2024-02-16T09:50:13;3.85;;;2.30;;
9160;SDS011;4615;51.340;8.288;2024-02-16T09:52:40;4.88;;;2.42;;
9160;SDS011;4615;51.340;8.288;2024-02-16T09:55:07;4.57;;;2.20;;
9160;SDS011;4615;51.340;8.288;2024-02-16T09:57:36;5.53;;;2.47;;
9160;SDS011;4615;51.340;8.288;2024-02-16T10:00:02;3.47;;;2.30;;
9160;SDS011;4615;51.340;8.288;2024-02-16T10:02:38;2.95;;;2.28;;
9160;SDS011;4615;51.340;8.288;2024-02-16T10:05:09;3.55;;;2.25;;
9160;SDS011;4615;51.340;8.288;2024-02-16T10:07:37;3.50;;;2.50;;
9160;SDS011;4615;51.340;8.288;2024-02-16T10:10:03;3.50;;;2.30;;
9160;SDS011;4615;51.340;8.288;2024-02-16T10:12:30;4.45;;;2.50;;
9160;SDS011;4615;51.340;8.288;2024-02-16T10:14:56;3.88;;;2.50;;
9160;SDS011;4615;51.340;8.288;2024-02-16T10:17:24;2.83;;;2.13;;
9160;SDS011;4615;51.340;8.288;2024-02-16T10:20:00;3.40;;;2.30;;
9160;SDS011;4615;51.340;8.288;2024-02-16T10:22:28;4.27;;;2.33;;
9160;SDS011;4615;51.340;8.288;2024-02-16T10:25:05;3.90;;;2.20;;
9160;SDS011;4615;51.340;8.288;2024-02-16T10:27:36;4.85;;;2.58;;
9160;SDS011;4615;51.340;8.288;2024-02-16T10:30:03;3.28;;;2.40;;
9160;SDS011;4615;51.340;8.288;2024-02-16T10:32:35;5.65;;;2.60;;
9160;SDS011;4615;51.340;8.288;2024-02-16T10:35:02;4.10;;;2.55;;
9160;SDS011;4615;51.340;8.288;2024-02-16T10:37:30;4.25;;;2.55;;
9160;SDS011;4615;51.340;8.288;2024-02-16T10:39:58;5.10;;;2.78;;
9160;SDS011;4615;51.340;8.288;2024-02-16T10:42:25;4.18;;;2.65;;
9160;SDS011;4615;51.340;8.288;2024-02-16T10:44:53;3.90;;;2.45;;
9160;SDS011;4615;51.340;8.288;2024-02-16T10:47:20;3.97;;;2.40;;
9160;SDS011;4615;51.340;8.288;2024-02-16T10:49:46;5.10;;;2.53;;
9160;SDS011;4615;51.340;8.288;2024-02-16T10:52:13;3.20;;;2.40;;
9160;SDS011;4615;51.340;8.288;2024-02-16T10:54:40;4.20;;;2.60;;
9160;SDS011;4615;51.340;8.288;2024-02-16T10:57:09;4.82;;;2.70;;
9160;SDS011;4615;51.340;8.288;2024-02-16T10:59:41;4.30;;;2.38;;
9160;SDS011;4615;51.340;8.288;2024-02-16T11:02:08;3.78;;;2.38;;
9160;SDS011;4615;51.340;8.288;2024-02-16T11:04:36;3.97;;;2.43;;
9160;SDS011;4615;51.340;8.288;2024-02-16T11:07:09;4.15;;;2.60;;
9160;SDS011;4615;51.340;8.288;2024-02-16T11:09:38;6.05;;;2.42;;
9160;SDS011;4615;51.340;8.288;2024-02-16T11:12:05;4.63;;;2.55;;
9160;SDS011;4615;51.340;8.288;2024-02-16T11:14:38;4.05;;;2.50;;
9160;SDS011;4615;51.340;8.288;2024-02-16T11:17:07;4.47;;;2.47;;
9160;SDS011;4615;51.340;8.288;2024-02-16T11:19:34;4.60;;;2.80;;
9160;SDS011;4615;51.340;8.288;2024-02-16T11:22:02;3.67;;;2.67;;
9160;SDS011;4615;51.340;8.288;2024-02-16T11:24:32;3.53;;;2.42;;
9160;SDS011;4615;51.340;8.288;2024-02-16T11:27:00;7.47;;;2.88;;
9160;SDS011;4615;51.340;8.288;2024-02-16T11:29:28;4.55;;;2.63;;
9160;SDS011;4615;51.340;8.288;2024-02-16T11:31:57;5.05;;;2.70;;
9160;SDS011;4615;51.340;8.288;2024-02-16T11:34:24;5.03;;;3.13;;
9160;SDS011;4615;51.340;8.288;2024-02-16T11:36:51;4.80;;;2.90;;
9160;SDS011;4615;51.340;8.288;2024-02-16T11:39:19;4.85;;;2.45;;
9160;SDS011;4615;51.340;8.288;2024-02-16T11:41:45;6.20;;;2.90;;
9160;SDS011;4615;51.340;8.288;2024-02-16T11:44:12;5.35;;;2.60;;
9160;SDS011;4615;51.340;8.288;2024-02-16T11:46:41;5.80;;;2.72;;
9160;SDS011;4615;51.340;8.288;2024-02-16T11:49:09;5.25;;;2.88;;
9160;SDS011;4615;51.340;8.288;2024-02-16T11:51:35;4.87;;;2.87;;
9160;SDS011;4615;51.340;8.288;2024-02-16T11:54:02;4.85;;;2.70;;
9160;SDS011;4615;51.340;8.288;2024-02-16T11:56:28;5.00;;;2.97;;
9160;SDS011;4615;51.340;8.288;2024-02-16T11:58:55;4.57;;;2.90;;
9160;SDS011;4615;51.340;8.288;2024-02-16T12:01:22;4.75;;;2.72;;
9160;SDS011;4615;51.340;8.288;2024-02-16T12:03:48;6.80;;;3.10;;
9160;SDS011;4615;51.340;8.288;2024-02-16T12:06:20;5.63;;;3.10;;
9160;SDS011;4615;51.340;8.288;2024-02-16T12:08:47;3.72;;;2.85;;
9160;SDS011;4615;51.340;8.288;2024-02-16T12:11:13;5.20;;;3.13;;
9160;SDS011;4615;51.340;8.288;2024-02-16T12:13:44;4.53;;;3.03;;
9160;SDS011;4615;51.340;8.288;2024-02-16T12:16:10;5.63;;;3.22;;
9160;SDS011;4615;51.340;8.288;2024-02-16T12:18:37;4.47;;;3.03;;
9160;SDS011;4615;51.340;8.288;2024-02-16T12:21:05;7.47;;;3.33;;
9160;SDS011;4615;51.340;8.288;2024-02-16T12:23:33;4.75;;;3.35;;
9160;SDS011;4615;51.340;8.288;2024-02-16T12:25:59;5.15;;;3.17;;
9160;SDS011;4615;51.340;8.288;2024-02-16T12:28:27;5.30;;;3.15;;
9160;SDS011;4615;51.340;8.288;2024-02-16T12:30:54;4.60;;;3.10;;
9160;SDS011;4615;51.340;8.288;2024-02-16T12:33:20;6.73;;;3.20;;
9160;SDS011;4615;51.340;8.288;2024-02-16T12:35:47;4.43;;;2.80;;
9160;SDS011;4615;51.340;8.288;2024-02-16T12:38:13;5.03;;;2.95;;
9160;SDS011;4615;51.340;8.288;2024-02-16T12:40:43;5.72;;;3.50;;
9160;SDS011;4615;51.340;8.288;2024-02-16T12:43:10;3.97;;;3.08;;
9160;SDS011;4615;51.340;8.288;2024-02-16T12:45:37;5.25;;;2.85;;
9160;SDS011;4615;51.340;8.288;2024-02-16T12:48:04;4.75;;;3.10;;
9160;SDS011;4615;51.340;8.288;2024-02-16T12:50:31;4.85;;;3.10;;
9160;SDS011;4615;51.340;8.288;2024-02-16T12:52:57;4.38;;;3.10;;
9160;SDS011;4615;51.340;8.288;2024-02-16T12:55:24;5.07;;;3.08;;
9160;SDS011;4615;51.340;8.288;2024-02-16T12:57:52;8.35;;;3.38;;
9160;SDS011;4615;51.340;8.288;2024-02-16T13:00:18;3.92;;;2.90;;
9160;SDS011;4615;51.340;8.288;2024-02-16T13:02:45;6.85;;;3.30;;
9160;SDS011;4615;51.340;8.288;2024-02-16T13:05:11;5.60;;;2.92;;
9160;SDS011;4615;51.340;8.288;2024-02-16T13:07:37;6.85;;;3.25;;
9160;SDS011;4615;51.340;8.288;2024-02-16T13:10:05;5.00;;;3.10;;
9160;SDS011;4615;51.340;8.288;2024-02-16T13:12:32;6.20;;;3.00;;
9160;SDS011;4615;51.340;8.288;2024-02-16T13:15:00;8.15;;;2.90;;
9160;SDS011;4615;51.340;8.288;2024-02-16T13:17:27;6.00;;;2.92;;
9160;SDS011;4615;51.340;8.288;2024-02-16T13:19:53;5.65;;;3.20;;
9160;SDS011;4615;51.340;8.288;2024-02-16T13:22:19;3.92;;;2.75;;
9160;SDS011;4615;51.340;8.288;2024-02-16T13:24:46;5.57;;;2.95;;
9160;SDS011;4615;51.340;8.288;2024-02-16T13:27:12;4.50;;;2.85;;
9160;SDS011;4615;51.340;8.288;2024-02-16T13:29:39;4.88;;;3.05;;
9160;SDS011;4615;51.340;8.288;2024-02-16T13:32:06;4.88;;;2.58;;
9160;SDS011;4615;51.340;8.288;2024-02-16T13:34:33;4.13;;;2.90;;
9160;SDS011;4615;51.340;8.288;2024-02-16T13:36:59;5.40;;;3.00;;
9160;SDS011;4615;51.340;8.288;2024-02-16T13:39:26;4.55;;;3.03;;
9160;SDS011;4615;51.340;8.288;2024-02-16T13:41:52;3.55;;;2.50;;
9160;SDS011;4615;51.340;8.288;2024-02-16T13:44:19;3.73;;;2.87;;
9160;SDS011;4615;51.340;8.288;2024-02-16T13:46:46;6.40;;;2.95;;
9160;SDS011;4615;51.340;8.288;2024-02-16T13:49:14;5.53;;;2.90;;
9160;SDS011;4615;51.340;8.288;2024-02-16T13:51:40;5.22;;;3.03;;
9160;SDS011;4615;51.340;8.288;2024-02-16T13:54:07;5.38;;;2.85;;
9160;SDS011;4615;51.340;8.288;2024-02-16T13:56:33;3.92;;;2.83;;
9160;SDS011;4615;51.340;8.288;2024-02-16T13:59:00;5.28;;;2.97;;
9160;SDS011;4615;51.340;8.288;2024-02-16T14:01:27;5.63;;;3.30;;
9160;SDS011;4615;51.340;8.288;2024-02-16T14:03:54;5.47;;;2.90;;
9160;SDS011;4615;51.340;8.288;2024-02-16T14:06:22;5.57;;;3.50;;
9160;SDS011;4615;51.340;8.288;2024-02-16T14:08:48;5.95;;;2.85;;
9160;SDS011;4615;51.340;8.288;2024-02-16T14:11:16;4.68;;;3.13;;
9160;SDS011;4615;51.340;8.288;2024-02-16T14:13:43;5.55;;;3.42;;
9160;SDS011;4615;51.340;8.288;2024-02-16T14:16:09;5.45;;;3.10;;
9160;SDS011;4615;51.340;8.288;2024-02-16T14:18:35;7.20;;;3.13;;
9160;SDS011;4615;51.340;8.288;2024-02-16T14:21:02;6.05;;;3.33;;
9160;SDS011;4615;51.340;8.288;2024-02-16T14:23:30;5.05;;;3.30;;
9160;SDS011;4615;51.340;8.288;2024-02-16T14:25:56;5.25;;;3.20;;
9160;SDS011;4615;51.340;8.288;2024-02-16T14:28:23;7.68;;;3.53;;
9160;SDS011;4615;51.340;8.288;2024-02-16T14:30:49;6.00;;;3.58;;
9160;SDS011;4615;51.340;8.288;2024-02-16T14:33:15;9.38;;;3.60;;
9160;SDS011;4615;51.340;8.288;2024-02-16T14:35:42;6.10;;;3.67;;
9160;SDS011;4615;51.340;8.288;2024-02-16T14:38:08;5.32;;;3.40;;
9160;SDS011;4615;51.340;8.288;2024-02-16T14:40:36;5.93;;;3.63;;
9160;SDS011;4615;51.340;8.288;2024-02-16T14:43:03;5.90;;;3.22;;
9160;SDS011;4615;51.340;8.288;2024-02-16T14:45:30;5.70;;;3.80;;
9160;SDS011;4615;51.340;8.288;2024-02-16T14:47:56;7.00;;;4.00;;
9160;SDS011;4615;51.340;8.288;2024-02-16T14:50:23;8.00;;;4.03;;
9160;SDS011;4615;51.340;8.288;2024-02-16T14:52:50;5.45;;;4.10;;
9160;SDS011;4615;51.340;8.288;2024-02-16T14:55:16;7.40;;;4.00;;
9160;SDS011;4615;51.340;8.288;2024-02-16T14:57:44;7.18;;;3.70;;
9160;SDS011;4615;51.340;8.288;2024-02-16T15:00:11;8.18;;;4.25;;
9160;SDS011;4615;51.340;8.288;2024-02-16T15:02:37;7.65;;;4.72;;
9160;SDS011;4615;51.340;8.288;2024-02-16T15:05:04;6.47;;;4.00;;
9160;SDS011;4615;51.340;8.288;2024-02-16T15:07:31;5.65;;;4.15;;
9160;SDS011;4615;51.340;8.288;2024-02-16T15:09:57;4.68;;;3.85;;
9160;SDS011;4615;51.340;8.288;2024-02-16T15:12:23;6.57;;;3.97;;
9160;SDS011;4615;51.340;8.288;2024-02-16T15:14:51;7.13;;;4.07;;